Târgu Mureş, România

11:41 PM EEST on aprilie 27, 2015 (GMT +0300)
Someseni | | Change Station
CLOSE
Current Station
Aeroport
Location: Cluj,
Elevation: 1033 ft
Nearby Weather Stations

Elev 1033 ft 46.78 °N, 23.68 °E | Updated 11 minutes ago

Scattered Clouds
Nori risipiţi
61 °F
Feels Like 61 °F
N
5
Vânt variabil Vânt from NNE

astăzi
High -- | Low -- °F
--% Chance of Precip.
Ieri
High -- | Low -- °F
Precip. -- inch
6:14 AM 8:25 PM
Lună în creştere, 67% visible
Presiunea 29.80 inch
Vizibilitatea 6.2 mile
Nori Few 5500 ft
Nori risipiţi 7600 ft
Punctul de rouă 48 °F
Umiditatea 63%
Precipitaţii 0.00 inch
Adâncimea zăpezii Not available.
UV 0 out of 12
Pollen Not available.
Calitatea aerului Not available.
Flu Activity Not available.
METAR LRCL 272030Z 03004KT 9999 FEW055 SCT076 16/09 Q1009

More Conditions Fewer Conditions

Presiunea 29.80 inch
Vizibilitatea 6.2 mile
Nori Few 5500 ft
Nori risipiţi 7600 ft
Punctul de rouă 48 °F
Umiditatea 63%
Precipitaţii 0.00 inch
Adâncimea zăpezii Not available.
UV 0 out of 12
Pollen Not available.
Calitatea aerului Not available.
Flu Activity Not available.
METAR LRCL 272030Z 03004KT 9999 FEW055 SCT076 16/09 Q1009

More Conditions Fewer Conditions

10-Day Weather Forecast

Almanac

Astronomie

Apr. 27, 2015 Răsărit Apus
Timpul Actual
Crepusculul Civil
Crepusculul nautic
Răsărit Astronomic
Luna
Durata zilei lumină
Lungimea zilei
Tomorrow will be .
, % of the Moon is Illuminated

Extremele de azi

Country Highs Country Lows

Community

WunderPhotos

Upload Photos

1,817,421 photos uploaded!

WunderBlogs® & News

Nearby

Calitatea aerului

  Calitatea aerului Index de calitate a aerului Poluat
Not available.

Adâncimea zapezii

Station Depth Elevation

Earthquake Activity

Oraş Distance Mag. Time & Date
Minimum magnitude displayed is 2.5.

Coastal Water Temperatures

Locul Temperatura

Stations

Nearby Weather Stations

Locaţia staţiei Temp Vânt rece Punctul de rouă Umiditatea Vânt Precip. Elev Actualizare Type